createdAt,value
2023-02-08T00:01:50.218Z,23.08
2023-02-08T00:04:17.005Z,21.75
2023-02-08T00:06:43.786Z,22.20
2023-02-08T00:09:10.681Z,22.90
2023-02-08T00:11:37.392Z,22.42
2023-02-08T00:14:04.420Z,21.90
2023-02-08T00:16:31.142Z,22.63
2023-02-08T00:18:57.875Z,22.15
2023-02-08T00:21:24.647Z,21.65
2023-02-08T00:23:51.468Z,21.58
2023-02-08T00:26:18.200Z,22.23
2023-02-08T00:28:44.958Z,21.10
2023-02-08T00:31:11.896Z,21.00
2023-02-08T00:33:38.678Z,21.92
2023-02-08T00:36:08.395Z,20.50
2023-02-08T00:38:35.513Z,21.08
2023-02-08T00:41:02.260Z,22.08
2023-02-08T00:43:29.144Z,21.75
2023-02-08T00:45:56.862Z,21.45
2023-02-08T00:48:23.860Z,20.45
2023-02-08T00:51:17.123Z,20.55
2023-02-08T00:53:45.871Z,21.33
2023-02-08T00:56:15.127Z,20.85
2023-02-08T00:58:43.154Z,20.13
2023-02-08T01:01:10.287Z,21.63
2023-02-08T01:03:39.209Z,20.60
2023-02-08T01:06:28.941Z,20.98
2023-02-08T01:09:01.446Z,20.70
2023-02-08T01:11:28.296Z,20.73
2023-02-08T01:13:59.864Z,20.65
2023-02-08T01:16:29.989Z,19.88
2023-02-08T01:18:58.666Z,20.48
2023-02-08T01:21:31.566Z,20.50
2023-02-08T01:23:58.556Z,20.35
2023-02-08T01:26:26.199Z,21.45
2023-02-08T01:28:54.256Z,20.27
2023-02-08T01:31:25.487Z,21.33
2023-02-08T01:33:52.349Z,21.02
2023-02-08T01:36:19.478Z,21.60
2023-02-08T01:38:46.424Z,20.80
2023-02-08T01:41:20.339Z,20.48
2023-02-08T01:44:27.960Z,21.50
2023-02-08T01:46:54.682Z,20.88
2023-02-08T01:49:33.491Z,21.77
2023-02-08T01:52:19.377Z,20.27
2023-02-08T01:54:57.534Z,21.20
2023-02-08T01:57:25.584Z,21.92
2023-02-08T02:00:02.795Z,23.05
2023-02-08T02:02:30.548Z,21.50
2023-02-08T02:04:57.400Z,21.45
2023-02-08T02:07:28.182Z,21.98
2023-02-08T02:10:18.672Z,20.67
2023-02-08T02:12:46.437Z,20.35
2023-02-08T02:15:13.206Z,20.17
2023-02-08T02:17:40.346Z,20.88
2023-02-08T02:20:16.605Z,21.33
2023-02-08T02:23:06.244Z,20.02
2023-02-08T02:26:16.123Z,20.27
2023-02-08T02:28:42.829Z,20.35
2023-02-08T02:31:34.847Z,20.70
2023-02-08T02:36:58.541Z,21.10
2023-02-08T02:39:50.957Z,21.50
2023-02-08T02:42:48.338Z,21.67
2023-02-08T02:45:27.028Z,20.90
2023-02-08T02:48:06.915Z,21.02
2023-02-08T02:50:45.588Z,21.17
2023-02-08T02:53:12.269Z,20.27
2023-02-08T02:55:44.166Z,20.80
2023-02-08T02:58:13.872Z,20.77
2023-02-08T03:00:41.329Z,20.00
2023-02-08T03:03:21.452Z,20.48
2023-02-08T03:05:48.737Z,21.63
2023-02-08T03:08:55.378Z,22.17
2023-02-08T03:11:37.059Z,21.25
2023-02-08T03:14:22.674Z,20.63
2023-02-08T03:17:18.687Z,21.30
2023-02-08T03:20:00.895Z,19.73
2023-02-08T03:22:43.679Z,21.58
2023-02-08T03:25:23.831Z,21.10
2023-02-08T03:27:58.689Z,21.73
2023-02-08T03:30:39.551Z,20.85
2023-02-08T03:33:20.505Z,21.00
2023-02-08T03:35:57.367Z,21.67
2023-02-08T03:38:30.556Z,21.65
2023-02-08T03:41:00.088Z,20.33
2023-02-08T03:43:32.587Z,21.25
2023-02-08T03:46:17.108Z,21.45
2023-02-08T03:48:51.869Z,20.75
2023-02-08T03:51:21.336Z,21.83
2023-02-08T03:53:50.350Z,21.80
2023-02-08T03:56:50.046Z,20.50
2023-02-08T03:59:24.267Z,22.27
2023-02-08T04:01:57.876Z,23.20
2023-02-08T04:04:26.579Z,23.25
2023-02-08T04:06:53.766Z,22.05
2023-02-08T04:09:20.428Z,21.23
2023-02-08T04:11:47.165Z,21.02
2023-02-08T04:14:13.935Z,22.38
2023-02-08T04:16:40.671Z,21.95
2023-02-08T04:19:07.385Z,22.77
2023-02-08T04:21:34.310Z,21.58
2023-02-08T04:24:01.102Z,22.15
2023-02-08T04:26:28.456Z,20.38
2023-02-08T04:28:55.203Z,21.30
2023-02-08T04:31:22.127Z,21.02
2023-02-08T04:33:49.026Z,21.48
2023-02-08T04:36:15.870Z,21.10
2023-02-08T04:38:42.599Z,22.13
2023-02-08T04:41:09.387Z,20.90
2023-02-08T04:43:36.457Z,20.52
2023-02-08T04:46:03.802Z,20.13
2023-02-08T04:48:30.632Z,20.60
2023-02-08T04:50:58.669Z,20.73
2023-02-08T04:53:25.900Z,21.13
2023-02-08T04:55:52.924Z,21.15
2023-02-08T04:58:20.012Z,20.92
2023-02-08T05:00:46.770Z,19.98
2023-02-08T05:03:15.063Z,21.73
2023-02-08T05:05:42.093Z,20.45
2023-02-08T05:08:08.773Z,20.17
2023-02-08T05:10:35.488Z,19.50
2023-02-08T05:13:02.289Z,20.55
2023-02-08T05:15:29.113Z,19.92
2023-02-08T05:17:55.860Z,19.63
2023-02-08T05:20:22.639Z,21.33
2023-02-08T05:22:49.458Z,19.50
2023-02-08T05:25:18.033Z,20.40
2023-02-08T05:27:44.788Z,19.10
2023-02-08T05:30:11.880Z,20.15
2023-02-08T05:32:38.705Z,20.08
2023-02-08T05:35:05.761Z,20.35
2023-02-08T05:37:32.509Z,20.23
2023-02-08T05:39:59.305Z,20.00
2023-02-08T05:42:27.069Z,20.05
2023-02-08T05:44:53.905Z,20.35
2023-02-08T05:47:20.649Z,18.88
2023-02-08T05:49:47.399Z,20.70
2023-02-08T05:52:14.096Z,21.23
2023-02-08T05:54:40.785Z,20.20
2023-02-08T05:57:07.491Z,19.52
2023-02-08T05:59:34.227Z,20.42
2023-02-08T06:02:00.919Z,19.35
2023-02-08T06:04:27.776Z,18.77
2023-02-08T06:06:54.590Z,19.05
2023-02-08T06:09:21.322Z,19.25
2023-02-08T06:11:48.064Z,20.58
2023-02-08T06:14:14.790Z,19.75
2023-02-08T06:16:41.568Z,19.50
2023-02-08T06:19:08.375Z,19.83
2023-02-08T06:21:35.146Z,20.58
2023-02-08T06:24:03.955Z,20.42
2023-02-08T06:26:30.643Z,19.35
2023-02-08T06:28:59.230Z,20.20
2023-02-08T06:31:26.060Z,19.92
2023-02-08T06:33:52.808Z,19.08
2023-02-08T06:36:19.537Z,19.90
2023-02-08T06:38:46.372Z,19.88
2023-02-08T06:41:13.110Z,19.70
2023-02-08T06:43:40.782Z,19.88
2023-02-08T06:46:08.687Z,19.60
2023-02-08T06:48:36.024Z,19.40
2023-02-08T06:51:02.991Z,18.80
2023-02-08T06:53:29.687Z,20.38
2023-02-08T06:55:56.802Z,19.70
2023-02-08T06:58:23.581Z,19.40
2023-02-08T07:00:50.420Z,20.05
2023-02-08T07:03:19.920Z,18.95
2023-02-08T07:06:02.515Z,19.08
2023-02-08T07:08:31.850Z,19.83
2023-02-08T07:10:58.534Z,20.15
2023-02-08T07:13:25.267Z,19.48
2023-02-08T07:15:52.004Z,19.27
2023-02-08T07:18:18.713Z,19.25
2023-02-08T07:20:45.454Z,19.17
2023-02-08T07:23:12.169Z,19.45
2023-02-08T07:25:39.183Z,19.60
2023-02-08T07:28:06.025Z,19.33
2023-02-08T07:30:32.885Z,18.48
2023-02-08T07:32:59.678Z,19.45
2023-02-08T07:35:26.417Z,18.27
2023-02-08T07:37:53.152Z,19.00
2023-02-08T07:40:19.975Z,18.98
2023-02-08T07:42:46.912Z,18.90
2023-02-08T07:45:13.758Z,19.08
2023-02-08T07:47:40.504Z,18.73
2023-02-08T07:50:07.369Z,19.83
2023-02-08T07:52:34.119Z,19.45
2023-02-08T07:55:00.799Z,19.55
2023-02-08T07:57:27.533Z,18.98
2023-02-08T07:59:54.374Z,19.15
2023-02-08T08:02:21.130Z,19.63
2023-02-08T08:04:47.887Z,19.63
2023-02-08T08:07:14.642Z,18.35
2023-02-08T08:09:41.415Z,18.55
2023-02-08T08:12:08.144Z,19.85
2023-02-08T08:14:34.827Z,19.52
2023-02-08T08:17:01.591Z,20.73
2023-02-08T08:19:28.374Z,18.80
2023-02-08T08:21:55.084Z,20.08
2023-02-08T08:24:21.806Z,20.52
2023-02-08T08:26:48.566Z,19.52
2023-02-08T08:29:15.512Z,19.95
2023-02-08T08:31:44.129Z,20.75
2023-02-08T08:34:11.017Z,20.33
2023-02-08T08:36:37.788Z,20.42
2023-02-08T08:39:04.781Z,20.13
2023-02-08T08:41:31.573Z,20.95
2023-02-08T08:43:58.355Z,20.80
2023-02-08T08:46:25.164Z,21.10
2023-02-08T08:48:52.529Z,21.08
2023-02-08T08:51:19.284Z,20.52
2023-02-08T08:53:46.140Z,19.75
2023-02-08T08:56:13.049Z,20.95
2023-02-08T08:58:39.945Z,21.08
2023-02-08T09:01:06.711Z,20.75
2023-02-08T09:03:33.518Z,20.90
2023-02-08T09:06:00.516Z,20.73
2023-02-08T09:08:27.291Z,22.17
2023-02-08T09:10:54.060Z,21.65
2023-02-08T09:13:21.787Z,22.05
2023-02-08T09:15:49.799Z,21.77
2023-02-08T09:18:17.190Z,21.40
2023-02-08T09:20:44.198Z,22.13
2023-02-08T09:23:11.599Z,22.17
2023-02-08T09:25:38.636Z,21.65
2023-02-08T09:28:05.659Z,21.45
2023-02-08T09:30:32.895Z,21.27
2023-02-08T09:32:59.838Z,22.23
2023-02-08T09:35:26.614Z,21.77
2023-02-08T09:37:57.738Z,22.17
2023-02-08T09:40:27.126Z,21.45
2023-02-08T09:43:03.089Z,22.05
2023-02-08T09:46:08.309Z,21.88
2023-02-08T09:48:38.084Z,22.63
2023-02-08T09:51:29.338Z,21.33
2023-02-08T09:54:07.209Z,22.63
2023-02-08T09:56:40.255Z,22.42
2023-02-08T09:59:15.182Z,21.85
2023-02-08T10:01:41.964Z,21.50
2023-02-08T10:04:37.812Z,21.60
2023-02-08T10:07:04.566Z,21.25
2023-02-08T10:09:31.294Z,20.90
2023-02-08T10:12:13.515Z,21.27
2023-02-08T10:14:56.978Z,20.80
2023-02-08T10:17:58.225Z,20.73
2023-02-08T10:20:30.530Z,20.10
2023-02-08T10:23:21.933Z,20.15
2023-02-08T10:26:07.308Z,20.40
2023-02-08T10:28:34.298Z,19.58
2023-02-08T10:31:30.639Z,18.83
2023-02-08T10:34:12.489Z,19.00
2023-02-08T10:36:43.398Z,18.80
2023-02-08T10:39:19.113Z,19.05
2023-02-08T10:41:46.918Z,18.15
2023-02-08T10:44:38.593Z,17.23
2023-02-08T10:47:43.787Z,17.70
2023-02-08T10:50:20.996Z,19.60
2023-02-08T10:52:49.114Z,18.23
2023-02-08T10:55:18.299Z,17.40
2023-02-08T10:57:48.376Z,16.35
2023-02-08T11:00:22.310Z,16.67
2023-02-08T11:02:51.443Z,16.02
2023-02-08T11:05:21.105Z,16.38
2023-02-08T11:07:47.944Z,15.68
2023-02-08T11:10:22.556Z,14.30
2023-02-08T11:13:00.229Z,13.73
2023-02-08T11:15:36.149Z,14.32
2023-02-08T11:18:04.615Z,13.50
2023-02-08T11:20:39.817Z,12.25
2023-02-08T11:23:26.038Z,12.88
2023-02-08T11:25:54.040Z,12.55
2023-02-08T11:28:30.540Z,12.52
2023-02-08T11:31:16.460Z,12.93
2023-02-08T11:34:05.745Z,13.15
2023-02-08T11:36:35.212Z,13.07
2023-02-08T11:39:18.686Z,12.57
2023-02-08T11:41:47.240Z,13.27
2023-02-08T11:44:32.142Z,13.52
2023-02-08T11:47:02.354Z,13.88
2023-02-08T11:49:41.616Z,14.07
2023-02-08T11:52:43.055Z,13.18
2023-02-08T11:55:19.022Z,13.43
2023-02-08T11:57:57.516Z,12.85
2023-02-08T12:00:26.969Z,13.40
2023-02-08T12:03:23.470Z,13.65
2023-02-08T12:06:09.056Z,12.48
2023-02-08T12:09:13.934Z,13.55
2023-02-08T12:11:49.718Z,12.32
2023-02-08T12:14:37.217Z,12.13
2023-02-08T12:17:22.142Z,12.13
2023-02-08T12:20:09.671Z,11.93
2023-02-08T12:23:09.525Z,11.70
2023-02-08T12:25:50.865Z,11.90
2023-02-08T12:28:33.579Z,10.63
2023-02-08T12:31:18.889Z,11.10
2023-02-08T12:34:01.072Z,11.63
2023-02-08T12:36:36.634Z,10.88
2023-02-08T12:39:26.037Z,10.57
2023-02-08T12:42:12.309Z,10.77
2023-02-08T12:45:17.751Z,11.27
2023-02-08T12:48:03.801Z,10.70
2023-02-08T12:50:33.728Z,10.77
2023-02-08T12:53:16.670Z,11.60
2023-02-08T12:55:46.728Z,10.38
2023-02-08T12:58:30.364Z,9.40
2023-02-08T13:01:05.442Z,9.48
2023-02-08T13:03:45.738Z,10.88
2023-02-08T13:06:33.670Z,9.48
2023-02-08T13:09:36.103Z,9.88
2023-02-08T13:12:11.591Z,9.98
2023-02-08T13:14:41.934Z,9.68
2023-02-08T13:17:28.192Z,10.27
2023-02-08T13:20:01.223Z,10.15
2023-02-08T13:22:33.076Z,10.52
2023-02-08T13:25:07.554Z,9.95
2023-02-08T13:27:35.282Z,10.40
2023-02-08T13:30:02.355Z,10.68
2023-02-08T13:32:44.071Z,10.05
2023-02-08T13:35:13.961Z,10.35
2023-02-08T13:37:42.412Z,10.60
2023-02-08T13:40:28.656Z,10.55
2023-02-08T13:43:09.251Z,10.90
2023-02-08T13:45:43.541Z,10.68
2023-02-08T13:48:14.555Z,10.60
2023-02-08T13:50:56.895Z,10.50
2023-02-08T13:53:52.621Z,10.90
2023-02-08T13:56:42.904Z,10.68
2023-02-08T13:59:41.895Z,11.30
2023-02-08T14:02:11.940Z,11.23
2023-02-08T14:04:38.721Z,11.05
2023-02-08T14:07:11.686Z,11.50
2023-02-08T14:09:52.607Z,11.57
2023-02-08T14:12:31.367Z,11.50
2023-02-08T14:15:17.166Z,11.02
2023-02-08T14:17:46.998Z,11.32
2023-02-08T14:20:25.758Z,10.93
2023-02-08T14:22:57.089Z,10.88
2023-02-08T14:25:27.678Z,11.00
2023-02-08T14:28:02.250Z,11.40
2023-02-08T14:30:35.091Z,10.45
2023-02-08T14:33:04.862Z,10.38
2023-02-08T14:35:34.211Z,10.50
2023-02-08T14:38:19.032Z,10.32
2023-02-08T14:40:50.935Z,10.32
2023-02-08T14:43:20.842Z,10.52
2023-02-08T14:45:50.415Z,10.15
2023-02-08T14:48:27.084Z,9.40
2023-02-08T14:51:10.601Z,10.60
2023-02-08T14:54:02.086Z,10.18
2023-02-08T14:56:37.561Z,10.63
2023-02-08T14:59:18.538Z,10.65
2023-02-08T15:02:01.232Z,9.13
2023-02-08T15:04:28.839Z,9.63
2023-02-08T15:07:33.584Z,9.23
2023-02-08T15:10:04.321Z,9.10
2023-02-08T15:12:43.126Z,9.50
2023-02-08T15:15:32.996Z,8.73
2023-02-08T15:18:01.319Z,8.60
2023-02-08T15:20:31.041Z,8.48
2023-02-08T15:23:03.568Z,9.18
2023-02-08T15:25:33.076Z,7.88
2023-02-08T15:28:19.288Z,7.97
2023-02-08T15:30:52.840Z,8.63
2023-02-08T15:33:21.122Z,9.20
2023-02-08T15:35:58.034Z,8.93
2023-02-08T15:38:25.033Z,8.88
2023-02-08T15:41:04.084Z,8.50
2023-02-08T15:43:32.173Z,8.77
2023-02-08T15:46:02.081Z,8.63
2023-02-08T15:48:29.953Z,8.13
2023-02-08T15:50:57.712Z,8.32
2023-02-08T15:53:24.977Z,8.50
2023-02-08T15:55:55.522Z,8.88
2023-02-08T15:58:46.738Z,8.88
2023-02-08T16:01:18.697Z,8.93
2023-02-08T16:03:51.482Z,8.55
2023-02-08T16:06:28.824Z,9.10
2023-02-08T16:09:02.407Z,9.23
2023-02-08T16:11:32.655Z,9.43
2023-02-08T16:14:01.548Z,9.18
2023-02-08T16:16:47.384Z,8.82
2023-02-08T16:19:31.979Z,8.65
2023-02-08T16:22:22.048Z,8.70
2023-02-08T16:24:50.837Z,8.75
2023-02-08T16:27:25.247Z,9.10
2023-02-08T16:29:52.192Z,8.85
2023-02-08T16:32:27.480Z,8.63
2023-02-08T16:34:55.116Z,9.18
2023-02-08T16:37:32.588Z,8.68
2023-02-08T16:40:06.704Z,9.35
2023-02-08T16:42:36.836Z,8.93
2023-02-08T16:45:06.380Z,9.60
2023-02-08T16:47:38.918Z,9.82
2023-02-08T16:50:07.288Z,10.55
2023-02-08T16:52:35.150Z,10.00
2023-02-08T16:55:02.106Z,10.45
2023-02-08T16:57:46.347Z,10.07
2023-02-08T17:00:15.645Z,10.45
2023-02-08T17:02:42.430Z,10.48
2023-02-08T17:05:09.376Z,10.25
2023-02-08T17:07:36.877Z,9.88
2023-02-08T17:10:09.253Z,9.95
2023-02-08T17:12:36.065Z,10.25
2023-02-08T17:15:02.886Z,10.27
2023-02-08T17:17:29.662Z,10.05
2023-02-08T17:19:56.459Z,10.23
2023-02-08T17:22:23.279Z,10.48
2023-02-08T17:24:49.990Z,10.10
2023-02-08T17:27:16.760Z,10.05
2023-02-08T17:29:43.495Z,10.32
2023-02-08T17:32:10.239Z,9.68
2023-02-08T17:34:39.553Z,10.60
2023-02-08T17:37:06.599Z,10.60
2023-02-08T17:39:33.371Z,10.32
2023-02-08T17:42:00.138Z,10.80
2023-02-08T17:44:26.910Z,10.60
2023-02-08T17:46:53.631Z,10.45
2023-02-08T17:49:20.422Z,10.73
2023-02-08T17:51:47.174Z,10.02
2023-02-08T17:54:14.880Z,10.20
2023-02-08T17:56:41.652Z,11.10
2023-02-08T17:59:08.789Z,10.63
2023-02-08T18:01:35.628Z,10.32
2023-02-08T18:04:03.028Z,9.70
2023-02-08T18:06:29.867Z,10.55
2023-02-08T18:08:56.595Z,11.48
2023-02-08T18:11:24.018Z,11.77
2023-02-08T18:13:53.366Z,12.10
2023-02-08T18:16:26.142Z,11.57
2023-02-08T18:18:57.676Z,11.70
2023-02-08T18:21:30.117Z,11.27
2023-02-08T18:23:59.908Z,11.32
2023-02-08T18:26:26.708Z,10.95
2023-02-08T18:28:53.719Z,12.25
2023-02-08T18:31:21.509Z,11.93
2023-02-08T18:33:50.030Z,12.02
2023-02-08T18:36:17.203Z,12.48
2023-02-08T18:38:47.833Z,12.52
2023-02-08T18:41:21.284Z,12.27
2023-02-08T18:43:48.585Z,11.10
2023-02-08T18:46:18.354Z,11.70
2023-02-08T18:48:45.902Z,12.35
2023-02-08T18:51:14.747Z,11.70
2023-02-08T18:53:42.344Z,11.77
2023-02-08T18:56:11.572Z,12.43
2023-02-08T18:58:38.315Z,13.20
2023-02-08T19:01:15.354Z,12.82
2023-02-08T19:03:43.136Z,12.50
2023-02-08T19:06:12.401Z,13.32
2023-02-08T19:08:40.228Z,13.52
2023-02-08T19:11:15.824Z,13.88
2023-02-08T19:13:42.739Z,13.13
2023-02-08T19:16:09.940Z,13.30
2023-02-08T19:18:36.770Z,13.85
2023-02-08T19:21:11.707Z,15.10
2023-02-08T19:23:38.729Z,14.43
2023-02-08T19:26:09.582Z,15.07
2023-02-08T19:28:36.336Z,15.17
2023-02-08T19:31:11.977Z,14.63
2023-02-08T19:33:40.613Z,14.82
2023-02-08T19:36:13.278Z,13.77
2023-02-08T19:38:40.563Z,15.32
2023-02-08T19:41:08.756Z,15.48
2023-02-08T19:43:35.748Z,15.07
2023-02-08T19:46:08.052Z,16.00
2023-02-08T19:48:34.789Z,15.20
2023-02-08T19:51:01.732Z,15.55
2023-02-08T19:53:29.249Z,14.15
2023-02-08T19:56:02.221Z,14.38
2023-02-08T19:58:30.098Z,15.52
2023-02-08T20:00:57.420Z,15.38
2023-02-08T20:03:25.005Z,15.35
2023-02-08T20:05:53.649Z,15.85
2023-02-08T20:08:25.843Z,15.43
2023-02-08T20:10:54.921Z,15.35
2023-02-08T20:13:22.363Z,15.07
2023-02-08T20:15:49.442Z,15.95
2023-02-08T20:18:16.935Z,15.80
2023-02-08T20:20:43.948Z,16.13
2023-02-08T20:23:22.508Z,15.75
2023-02-08T20:25:49.896Z,16.33
2023-02-08T20:28:16.669Z,16.90
2023-02-08T20:30:43.490Z,15.48
2023-02-08T20:33:10.243Z,16.20
2023-02-08T20:35:37.258Z,17.02
2023-02-08T20:38:03.959Z,16.27
2023-02-08T20:40:31.553Z,18.58
2023-02-08T20:42:58.346Z,17.73
2023-02-08T20:45:25.177Z,17.52
2023-02-08T20:47:52.002Z,17.45
2023-02-08T20:50:20.254Z,17.33
2023-02-08T20:52:48.133Z,17.38
2023-02-08T20:55:15.053Z,20.38
2023-02-08T20:57:41.760Z,17.77
2023-02-08T21:00:09.176Z,18.08
2023-02-08T21:02:35.970Z,18.35
2023-02-08T21:05:02.903Z,17.88
2023-02-08T21:07:29.611Z,17.67
2023-02-08T21:09:56.343Z,18.63
2023-02-08T21:12:23.048Z,19.10
2023-02-08T21:14:49.866Z,18.00
2023-02-08T21:17:16.601Z,17.58
2023-02-08T21:19:43.363Z,17.77
2023-02-08T21:22:10.059Z,17.55
2023-02-08T21:24:36.759Z,19.52
2023-02-08T21:27:03.599Z,18.15
2023-02-08T21:29:32.515Z,17.95
2023-02-08T21:31:59.523Z,16.90
2023-02-08T21:34:26.579Z,17.48
2023-02-08T21:36:53.336Z,16.92
2023-02-08T21:39:20.150Z,16.45
2023-02-08T21:41:48.143Z,16.95
2023-02-08T21:44:15.373Z,16.40
2023-02-08T21:46:42.245Z,16.80
2023-02-08T21:49:27.966Z,16.48
2023-02-08T21:52:13.583Z,17.20
2023-02-08T21:54:44.045Z,17.35
2023-02-08T21:57:20.411Z,16.70
2023-02-08T21:59:49.155Z,16.02
2023-02-08T22:02:21.883Z,16.20
2023-02-08T22:04:49.314Z,14.00
2023-02-08T22:07:16.242Z,14.23
2023-02-08T22:09:43.216Z,13.50
2023-02-08T22:12:20.699Z,13.98
2023-02-08T22:14:49.244Z,14.48
2023-02-08T22:17:16.074Z,14.32
2023-02-08T22:19:43.003Z,14.48
2023-02-08T22:22:10.735Z,14.32
2023-02-08T22:24:37.606Z,13.18
2023-02-08T22:27:04.459Z,13.30
2023-02-08T22:29:31.348Z,12.98
2023-02-08T22:31:58.300Z,12.93
2023-02-08T22:34:27.041Z,12.55
2023-02-08T22:36:54.047Z,12.88
2023-02-08T22:39:21.172Z,12.75
2023-02-08T22:41:48.018Z,12.73
2023-02-08T22:44:14.867Z,11.35
2023-02-08T22:46:41.826Z,10.52
2023-02-08T22:49:08.877Z,10.23
2023-02-08T22:51:35.808Z,10.40
2023-02-08T22:54:02.883Z,10.75
2023-02-08T22:56:29.666Z,10.00
2023-02-08T22:58:56.627Z,10.80
2023-02-08T23:01:23.434Z,11.25
2023-02-08T23:03:50.253Z,10.05
2023-02-08T23:06:17.606Z,10.20
2023-02-08T23:08:44.695Z,10.63
2023-02-08T23:11:14.241Z,10.48
2023-02-08T23:13:41.228Z,11.10
2023-02-08T23:16:11.422Z,10.68
2023-02-08T23:18:38.206Z,10.63
2023-02-08T23:21:09.704Z,10.10
2023-02-08T23:23:36.694Z,11.20
2023-02-08T23:26:07.971Z,11.10
2023-02-08T23:28:35.089Z,10.52
2023-02-08T23:31:09.440Z,11.77
2023-02-08T23:33:37.670Z,10.82
2023-02-08T23:36:11.203Z,11.65
2023-02-08T23:38:38.286Z,10.85
2023-02-08T23:41:07.173Z,11.13
2023-02-08T23:43:34.226Z,10.98
2023-02-08T23:46:11.174Z,11.52
2023-02-08T23:48:39.404Z,12.23
2023-02-08T23:51:07.338Z,11.70
2023-02-08T23:53:34.944Z,11.65
2023-02-08T23:56:13.555Z,11.73
2023-02-08T23:58:40.402Z,11.63
